Averill, Vermont
Current Conditions -  °F | °C
As of 7:55 AM on Thursday 30 Oct 2014 (Local Time) from KEFK Reporting Station
Light Rain Light Rain  
Wind Chill: 38°   Ceiling: 2500
Heat Index: 41°   Visibility: 5mi
Dew Point: 39°   Wind: 5mph
Humidity: 92%   Direction: 280°W
Pressure: 29.9"   Gusts: NA
Location:  45°N, 71.71°W
Report Text: KEFK 301155Z AUTO 28004KT 5SM -RA SCT018 BKN025 OVC034 05/04 A2990 RMK AO2 T00520040 10077 20052
Loading
Personal Weather Stations






























Interactive Weather Map
Tropical Storm Tracking
New forecast layout! Learn more

10-Day Weather Forecast

Advertisements
Track Severe Weather on mobile